createdAt,value
2022-10-15T00:00:49.242Z,1.65
2022-10-15T00:03:16.651Z,1.85
2022-10-15T00:05:43.959Z,1.67
2022-10-15T00:08:11.543Z,1.50
2022-10-15T00:10:38.894Z,1.40
2022-10-15T00:13:06.266Z,1.50
2022-10-15T00:15:35.753Z,1.48
2022-10-15T00:18:03.074Z,1.38
2022-10-15T00:20:30.415Z,1.67
2022-10-15T00:22:57.705Z,1.50
2022-10-15T00:25:25.009Z,1.27
2022-10-15T00:27:52.360Z,1.55
2022-10-15T00:30:19.693Z,1.60
2022-10-15T00:32:46.969Z,1.45
2022-10-15T00:35:14.261Z,1.35
2022-10-15T00:37:43.458Z,1.80
2022-10-15T00:40:11.987Z,1.50
2022-10-15T00:42:39.273Z,1.80
2022-10-15T00:45:09.011Z,1.35
2022-10-15T00:47:39.553Z,1.50
2022-10-15T00:50:09.395Z,1.40
2022-10-15T00:53:10.615Z,1.60
2022-10-15T00:55:40.335Z,1.83
2022-10-15T00:58:15.254Z,1.55
2022-10-15T01:00:42.848Z,1.83
2022-10-15T01:03:10.351Z,1.60
2022-10-15T01:05:37.865Z,1.65
2022-10-15T01:08:05.230Z,1.30
2022-10-15T01:10:42.675Z,1.45
2022-10-15T01:13:22.443Z,1.45
2022-10-15T01:16:00.244Z,1.50
2022-10-15T01:18:39.039Z,1.30
2022-10-15T01:21:10.722Z,1.48
2022-10-15T01:23:52.612Z,1.63
2022-10-15T01:26:42.635Z,1.60
2022-10-15T01:29:45.278Z,1.52
2022-10-15T01:32:20.287Z,1.65
2022-10-15T01:35:01.410Z,1.30
2022-10-15T01:37:43.001Z,1.50
2022-10-15T01:40:32.472Z,1.30
2022-10-15T01:43:09.649Z,1.20
2022-10-15T01:45:56.708Z,1.45
2022-10-15T01:48:36.502Z,1.40
2022-10-15T01:51:05.104Z,1.42
2022-10-15T01:53:34.342Z,1.70
2022-10-15T01:56:04.583Z,1.58
2022-10-15T01:58:32.002Z,1.48
2022-10-15T02:00:59.520Z,1.30
2022-10-15T02:03:27.034Z,1.33
2022-10-15T02:06:01.647Z,1.75
2022-10-15T02:08:43.834Z,1.45
2022-10-15T02:11:13.463Z,1.45
2022-10-15T02:13:46.747Z,1.10
2022-10-15T02:16:30.900Z,1.40
2022-10-15T02:19:08.218Z,1.33
2022-10-15T02:21:43.678Z,1.40
2022-10-15T02:24:12.730Z,1.00
2022-10-15T02:26:41.683Z,1.33
2022-10-15T02:29:11.856Z,1.33
2022-10-15T02:31:40.489Z,1.10
2022-10-15T02:34:09.507Z,1.33
2022-10-15T02:36:39.385Z,1.20
2022-10-15T02:39:08.504Z,1.08
2022-10-15T02:41:36.090Z,1.30
2022-10-15T02:44:03.926Z,1.40
2022-10-15T02:46:31.330Z,1.25
2022-10-15T02:48:58.741Z,1.30
2022-10-15T02:51:26.008Z,1.50
2022-10-15T02:53:53.407Z,1.45
2022-10-15T02:56:20.781Z,1.20
2022-10-15T02:58:48.168Z,1.60
2022-10-15T03:01:15.523Z,1.20
2022-10-15T03:03:42.875Z,1.10
2022-10-15T03:06:10.197Z,1.42
2022-10-15T03:08:37.507Z,0.95
2022-10-15T03:11:05.622Z,0.90
2022-10-15T03:13:35.966Z,0.80
2022-10-15T03:16:07.322Z,0.88
2022-10-15T03:18:38.299Z,1.00
2022-10-15T03:21:09.632Z,0.88
2022-10-15T03:23:37.149Z,0.70
2022-10-15T03:26:10.301Z,0.95
2022-10-15T03:28:38.611Z,0.80
2022-10-15T03:31:06.648Z,1.10
2022-10-15T03:33:33.979Z,1.10
2022-10-15T03:36:02.546Z,0.90
2022-10-15T03:38:29.871Z,1.15
2022-10-15T03:40:58.111Z,0.80
2022-10-15T03:43:42.643Z,1.15
2022-10-15T03:46:10.721Z,1.00
2022-10-15T03:48:42.563Z,0.82
2022-10-15T03:51:13.806Z,0.80
2022-10-15T03:53:43.328Z,0.77
2022-10-15T03:56:11.495Z,0.90
2022-10-15T03:58:39.936Z,0.75
2022-10-15T04:01:14.371Z,0.93
2022-10-15T04:03:41.771Z,0.80
2022-10-15T04:06:09.566Z,0.75
2022-10-15T04:08:38.034Z,0.85
2022-10-15T04:11:19.623Z,0.90
2022-10-15T04:13:54.217Z,0.90
2022-10-15T04:16:21.562Z,0.90
2022-10-15T04:18:49.375Z,1.00
2022-10-15T04:21:16.957Z,1.40
2022-10-15T04:23:49.405Z,1.17
2022-10-15T04:26:27.934Z,0.70
2022-10-15T04:28:55.678Z,0.75
2022-10-15T04:31:24.107Z,0.60
2022-10-15T04:33:52.561Z,0.70
2022-10-15T04:36:19.910Z,0.70
2022-10-15T04:38:58.360Z,0.70
2022-10-15T04:41:42.889Z,0.57
2022-10-15T04:44:15.561Z,0.40
2022-10-15T04:46:48.842Z,0.50
2022-10-15T04:49:41.980Z,0.60
2022-10-15T04:52:25.147Z,0.43
2022-10-15T04:54:56.305Z,0.60
2022-10-15T04:57:23.694Z,0.60
2022-10-15T04:59:55.384Z,0.50
2022-10-15T05:02:54.141Z,0.43
2022-10-15T05:05:26.371Z,0.65
2022-10-15T05:08:04.839Z,0.47
2022-10-15T05:10:54.944Z,0.40
2022-10-15T05:13:23.113Z,0.40
2022-10-15T05:15:50.515Z,1.17
2022-10-15T05:18:21.177Z,0.40
2022-10-15T05:20:52.151Z,0.50
2022-10-15T05:23:20.668Z,0.30
2022-10-15T05:26:01.172Z,0.75
2022-10-15T05:28:28.526Z,1.30
2022-10-15T05:30:55.942Z,0.82
2022-10-15T05:33:23.271Z,0.57
2022-10-15T05:35:50.855Z,0.50
2022-10-15T05:38:21.284Z,0.45
2022-10-15T05:40:51.622Z,0.60
2022-10-15T05:43:23.442Z,0.45
2022-10-15T05:45:54.675Z,0.60
2022-10-15T05:48:23.374Z,0.40
2022-10-15T05:50:50.715Z,0.60
2022-10-15T05:53:24.197Z,0.70
2022-10-15T05:55:55.593Z,0.50
2022-10-15T05:58:27.500Z,0.50
2022-10-15T06:00:55.714Z,0.57
2022-10-15T06:03:23.524Z,0.57
2022-10-15T06:05:51.031Z,0.60
2022-10-15T06:08:18.511Z,0.52
2022-10-15T06:10:45.929Z,0.50
2022-10-15T06:13:13.294Z,0.60
2022-10-15T06:15:43.970Z,0.50
2022-10-15T06:18:12.333Z,0.60
2022-10-15T06:20:40.461Z,0.50
2022-10-15T06:23:08.103Z,0.60
2022-10-15T06:25:36.386Z,0.40
2022-10-15T06:28:04.447Z,0.50
2022-10-15T06:30:42.324Z,0.50
2022-10-15T06:35:42.405Z,0.50
2022-10-15T06:38:09.735Z,0.60
2022-10-15T06:40:37.735Z,0.50
2022-10-15T06:43:07.906Z,0.60
2022-10-15T06:45:39.493Z,0.57
2022-10-15T06:48:10.506Z,0.50
2022-10-15T06:50:38.430Z,0.60
2022-10-15T06:53:05.826Z,0.50
2022-10-15T06:55:33.222Z,0.70
2022-10-15T06:58:00.534Z,0.52
2022-10-15T07:00:29.627Z,0.98
2022-10-15T07:02:56.943Z,0.52
2022-10-15T07:05:26.523Z,0.52
2022-10-15T07:07:54.595Z,0.40
2022-10-15T07:10:22.565Z,0.50
2022-10-15T07:12:49.933Z,0.55
2022-10-15T07:15:17.366Z,0.73
2022-10-15T07:18:01.081Z,0.70
2022-10-15T07:20:31.580Z,1.10
2022-10-15T07:23:00.344Z,0.50
2022-10-15T07:25:30.747Z,0.80
2022-10-15T07:27:58.107Z,0.50
2022-10-15T07:30:28.386Z,0.65
2022-10-15T07:32:57.144Z,0.55
2022-10-15T07:35:27.951Z,0.50
2022-10-15T07:37:55.441Z,0.60
2022-10-15T07:40:22.811Z,0.60
2022-10-15T07:42:56.880Z,0.60
2022-10-15T07:45:26.270Z,0.60
2022-10-15T07:47:53.628Z,0.60
2022-10-15T07:50:21.091Z,0.60
2022-10-15T07:52:48.401Z,0.50
2022-10-15T07:55:15.822Z,0.80
2022-10-15T07:57:43.150Z,0.70
2022-10-15T08:00:10.971Z,0.60
2022-10-15T08:02:40.943Z,0.60
2022-10-15T08:05:09.083Z,1.25
2022-10-15T08:07:36.499Z,1.00
2022-10-15T08:10:14.812Z,1.60
2022-10-15T08:12:44.340Z,0.75
2022-10-15T08:15:14.941Z,0.85
2022-10-15T08:17:45.293Z,0.60
2022-10-15T08:20:15.708Z,0.55
2022-10-15T08:22:43.017Z,0.52
2022-10-15T08:25:10.411Z,0.60
2022-10-15T08:27:37.792Z,0.50
2022-10-15T08:30:06.409Z,0.80
2022-10-15T08:32:33.741Z,0.43
2022-10-15T08:35:01.011Z,0.50
2022-10-15T08:37:32.911Z,0.50
2022-10-15T08:40:00.209Z,0.60
2022-10-15T08:42:33.939Z,0.40
2022-10-15T08:45:12.543Z,0.60
2022-10-15T08:47:51.542Z,0.75
2022-10-15T08:50:40.503Z,0.85
2022-10-15T08:53:11.647Z,1.20
2022-10-15T08:55:40.072Z,0.50
2022-10-15T08:58:19.923Z,0.40
2022-10-15T09:01:15.591Z,0.40
2022-10-15T09:04:00.262Z,0.50
2022-10-15T09:06:35.500Z,0.70
2022-10-15T09:09:06.430Z,0.50
2022-10-15T09:12:04.781Z,0.80
2022-10-15T09:14:38.079Z,0.40
2022-10-15T09:17:21.976Z,0.50
2022-10-15T09:20:04.131Z,0.57
2022-10-15T09:22:31.975Z,0.60
2022-10-15T09:24:59.378Z,0.60
2022-10-15T09:27:36.821Z,0.60
2022-10-15T09:30:18.322Z,0.60
2022-10-15T09:33:19.161Z,0.70
2022-10-15T09:36:17.480Z,0.80
2022-10-15T09:38:56.472Z,0.90
2022-10-15T09:41:42.835Z,0.88
2022-10-15T09:44:14.764Z,0.80
2022-10-15T09:46:49.254Z,0.80
2022-10-15T09:49:28.017Z,0.98
2022-10-15T09:52:44.779Z,0.70
2022-10-15T09:55:29.993Z,1.00
2022-10-15T09:57:59.383Z,0.82
2022-10-15T10:00:26.675Z,0.90
2022-10-15T10:03:07.513Z,0.98
2022-10-15T10:05:36.492Z,0.95
2022-10-15T10:08:22.783Z,0.80
2022-10-15T10:10:57.813Z,0.98
2022-10-15T10:13:30.325Z,1.00
2022-10-15T10:16:19.505Z,0.82
2022-10-15T10:19:03.396Z,0.73
2022-10-15T10:21:35.513Z,0.70
2022-10-15T10:24:30.191Z,0.90
2022-10-15T10:27:01.154Z,0.82
2022-10-15T10:29:33.854Z,0.70
2022-10-15T10:32:12.990Z,0.60
2022-10-15T10:34:40.309Z,0.80
2022-10-15T10:37:10.148Z,0.90
2022-10-15T10:39:37.452Z,0.65
2022-10-15T10:42:05.555Z,0.70
2022-10-15T10:44:35.635Z,0.60
2022-10-15T10:47:15.426Z,0.88
2022-10-15T10:49:50.669Z,0.70
2022-10-15T10:52:28.241Z,0.68
2022-10-15T10:54:59.758Z,0.60
2022-10-15T10:57:35.773Z,0.70
2022-10-15T11:00:04.828Z,0.90
2022-10-15T11:02:33.384Z,0.80
2022-10-15T11:11:58.084Z,0.70
2022-10-15T11:17:44.774Z,0.73
2022-10-15T11:20:54.916Z,0.70
2022-10-15T11:23:44.412Z,0.70
2022-10-15T11:27:06.583Z,0.57
2022-10-15T11:30:04.148Z,0.60
2022-10-15T11:33:06.402Z,0.63
2022-10-15T11:36:04.443Z,0.75
2022-10-15T11:38:45.105Z,0.60
2022-10-15T11:41:22.534Z,0.68
2022-10-15T11:43:56.483Z,0.70
2022-10-15T11:46:33.464Z,1.05
2022-10-15T11:49:16.476Z,0.63
2022-10-15T11:52:17.051Z,0.80
2022-10-15T11:54:56.822Z,0.60
2022-10-15T11:57:24.391Z,0.68
2022-10-15T11:59:58.231Z,0.60
2022-10-15T12:02:36.488Z,0.90
2022-10-15T12:05:13.428Z,0.80
2022-10-15T12:07:43.090Z,0.60
2022-10-15T12:10:33.195Z,0.70
2022-10-15T12:13:21.704Z,0.68
2022-10-15T12:15:59.340Z,0.50
2022-10-15T12:18:51.987Z,0.90
2022-10-15T12:21:34.478Z,0.68
2022-10-15T12:24:04.349Z,0.70
2022-10-15T12:26:32.945Z,0.60
2022-10-15T12:29:07.342Z,0.55
2022-10-15T12:31:49.059Z,0.57
2022-10-15T12:34:28.574Z,0.63
2022-10-15T12:37:05.698Z,0.73
2022-10-15T12:39:48.061Z,0.70
2022-10-15T12:42:35.403Z,0.80
2022-10-15T12:45:06.157Z,0.90
2022-10-15T12:47:51.286Z,0.68
2022-10-15T12:50:18.810Z,0.68
2022-10-15T12:53:03.890Z,0.57
2022-10-15T13:25:51.150Z,0.65
2022-10-15T13:28:39.605Z,0.70
2022-10-15T13:31:23.586Z,0.95
2022-10-15T13:33:57.683Z,0.60
2022-10-15T13:36:31.391Z,0.73
2022-10-15T13:39:06.494Z,0.80
2022-10-15T13:41:36.195Z,0.80
2022-10-15T13:44:04.090Z,0.95
2022-10-15T13:46:33.297Z,0.60
2022-10-15T13:49:02.018Z,1.30
2022-10-15T13:51:43.098Z,1.00
2022-10-15T13:54:21.905Z,1.00
2022-10-15T13:56:58.006Z,1.00
2022-10-15T13:59:26.925Z,1.00
2022-10-15T14:02:01.324Z,1.00
2022-10-15T14:07:04.913Z,0.98
2022-10-15T14:09:33.150Z,1.27
2022-10-15T14:12:03.385Z,1.38
2022-10-15T14:14:32.284Z,1.20
2022-10-15T14:17:01.066Z,0.95
2022-10-15T14:19:30.051Z,1.00
2022-10-15T14:21:57.893Z,0.68
2022-10-15T14:24:34.826Z,0.85
2022-10-15T14:27:21.873Z,0.70
2022-10-15T14:29:50.383Z,1.00
2022-10-15T14:32:46.727Z,0.80
2022-10-15T14:35:34.274Z,0.75
2022-10-15T14:38:06.359Z,0.90
2022-10-15T14:40:33.642Z,0.90
2022-10-15T14:43:17.393Z,0.95
2022-10-15T14:45:53.769Z,0.82
2022-10-15T14:48:25.730Z,0.90
2022-10-15T14:50:53.322Z,0.70
2022-10-15T14:53:22.317Z,0.80
2022-10-15T14:55:52.408Z,0.75
2022-10-15T14:58:21.422Z,0.93
2022-10-15T15:00:54.605Z,1.73
2022-10-15T15:03:26.173Z,1.23
2022-10-15T15:05:54.891Z,1.10
2022-10-15T15:08:22.695Z,1.10
2022-10-15T15:10:50.620Z,1.00
2022-10-15T15:13:22.365Z,1.20
2022-10-15T15:15:49.793Z,1.20
2022-10-15T15:18:17.280Z,1.00
2022-10-15T15:20:46.135Z,1.65
2022-10-15T15:23:19.382Z,1.40
2022-10-15T15:25:46.974Z,1.20
2022-10-15T15:28:15.319Z,1.33
2022-10-15T15:30:43.760Z,1.60
2022-10-15T15:33:15.134Z,1.40
2022-10-15T15:35:53.404Z,1.35
2022-10-15T15:38:30.594Z,1.30
2022-10-15T15:41:03.441Z,1.08
2022-10-15T15:43:30.872Z,1.30
2022-10-15T15:45:58.263Z,1.35
2022-10-15T15:48:25.593Z,0.90
2022-10-15T15:50:52.896Z,1.02
2022-10-15T15:53:20.626Z,1.05
2022-10-15T15:55:47.896Z,0.93
2022-10-15T15:58:15.676Z,1.30
2022-10-15T16:00:42.938Z,1.00
2022-10-15T16:03:12.783Z,0.95
2022-10-15T16:05:40.952Z,1.30
2022-10-15T16:08:08.991Z,1.20
2022-10-15T16:10:36.335Z,1.20
2022-10-15T16:13:03.712Z,1.20
2022-10-15T16:15:31.057Z,1.20
2022-10-15T16:17:58.323Z,1.10
2022-10-15T16:20:25.720Z,1.40
2022-10-15T16:22:53.346Z,1.27
2022-10-15T16:25:20.871Z,1.08
2022-10-15T16:27:48.914Z,1.38
2022-10-15T16:30:16.473Z,1.48
2022-10-15T16:32:43.764Z,2.53
2022-10-15T16:35:11.082Z,3.00
2022-10-15T16:37:38.371Z,2.70
2022-10-15T16:40:06.287Z,2.60
2022-10-15T16:42:33.620Z,2.30
2022-10-15T16:45:00.921Z,1.85
2022-10-15T16:47:28.502Z,1.50
2022-10-15T16:49:55.953Z,1.58
2022-10-15T16:52:23.552Z,1.70
2022-10-15T16:54:51.248Z,1.70
2022-10-15T16:57:18.612Z,2.00
2022-10-15T16:59:45.934Z,1.88
2022-10-15T17:02:13.293Z,2.35
2022-10-15T17:04:40.575Z,1.80
2022-10-15T17:07:08.016Z,1.60
2022-10-15T17:09:35.492Z,1.80
2022-10-15T17:12:02.835Z,1.90
2022-10-15T17:14:30.254Z,1.70
2022-10-15T17:16:57.616Z,1.85
2022-10-15T17:19:28.912Z,1.60
2022-10-15T17:21:59.162Z,2.42
2022-10-15T17:24:26.655Z,3.00
2022-10-15T17:26:54.772Z,2.47
2022-10-15T17:29:25.422Z,2.03
2022-10-15T17:31:53.902Z,1.90
2022-10-15T17:34:21.663Z,1.70
2022-10-15T17:36:49.040Z,2.17
2022-10-15T17:39:17.889Z,2.75
2022-10-15T17:41:45.461Z,5.18
2022-10-15T17:44:12.866Z,5.63
2022-10-15T17:46:40.324Z,4.75
2022-10-15T17:49:09.577Z,3.33
2022-10-15T17:51:36.972Z,3.03
2022-10-15T17:54:06.766Z,3.67
2022-10-15T17:56:35.235Z,3.90
2022-10-15T17:59:04.705Z,2.50
2022-10-15T18:04:23.907Z,2.40
2022-10-15T18:06:51.279Z,2.25
2022-10-15T18:09:25.839Z,2.40
2022-10-15T18:11:56.229Z,2.90
2022-10-15T18:14:28.703Z,3.00
2022-10-15T18:16:56.098Z,3.15
2022-10-15T18:19:25.557Z,2.42
2022-10-15T18:21:53.205Z,1.98
2022-10-15T18:24:21.715Z,2.28
2022-10-15T18:26:52.615Z,2.40
2022-10-15T18:29:20.091Z,2.30
2022-10-15T18:31:47.551Z,2.00
2022-10-15T18:34:14.938Z,2.28
2022-10-15T18:36:43.597Z,3.00
2022-10-15T18:39:11.467Z,2.25
2022-10-15T18:41:40.046Z,2.50
2022-10-15T18:44:13.027Z,3.03
2022-10-15T18:46:42.153Z,2.90
2022-10-15T18:49:09.515Z,5.38
2022-10-15T18:51:37.951Z,3.70
2022-10-15T18:54:07.015Z,2.95
2022-10-15T18:56:34.330Z,2.80
2022-10-15T18:59:01.640Z,2.50
2022-10-15T19:01:30.614Z,2.70
2022-10-15T19:03:59.337Z,2.45
2022-10-15T19:06:35.555Z,2.47
2022-10-15T19:09:04.499Z,3.70
2022-10-15T19:11:33.773Z,3.60
2022-10-15T19:14:02.955Z,3.67
2022-10-15T19:16:30.266Z,5.18
2022-10-15T19:19:03.246Z,5.80
2022-10-15T19:21:31.229Z,6.97
2022-10-15T19:23:58.716Z,6.60
2022-10-15T19:26:27.000Z,7.40
2022-10-15T19:28:56.865Z,8.07
2022-10-15T19:31:26.570Z,7.50
2022-10-15T19:33:54.233Z,7.57
2022-10-15T19:36:22.542Z,6.60
2022-10-15T19:38:49.975Z,6.40
2022-10-15T19:41:18.385Z,6.45
2022-10-15T19:43:45.931Z,6.57
2022-10-15T19:46:13.343Z,6.72
2022-10-15T19:48:42.113Z,6.10
2022-10-15T19:51:09.458Z,8.13
2022-10-15T19:53:36.831Z,6.93
2022-10-15T19:56:06.125Z,6.90
2022-10-15T19:58:34.167Z,6.97
2022-10-15T20:01:02.879Z,7.03
2022-10-15T20:03:30.423Z,6.05
2022-10-15T20:06:02.793Z,6.85
2022-10-15T20:08:31.499Z,6.45
2022-10-15T20:10:58.796Z,6.05
2022-10-15T20:13:26.107Z,5.78
2022-10-15T20:15:54.207Z,6.07
2022-10-15T20:18:21.800Z,5.57
2022-10-15T20:20:49.226Z,6.00
2022-10-15T20:23:16.805Z,5.82
2022-10-15T20:25:44.330Z,11.25
2022-10-15T20:28:12.676Z,7.00
2022-10-15T20:30:40.650Z,6.55
2022-10-15T20:33:08.460Z,6.43
2022-10-15T20:35:37.050Z,5.60
2022-10-15T20:38:04.708Z,4.50
2022-10-15T20:40:32.252Z,5.63
2022-10-15T20:42:59.601Z,5.07
2022-10-15T20:45:30.323Z,5.32
2022-10-15T20:47:57.671Z,4.88
2022-10-15T20:50:28.195Z,4.80
2022-10-15T20:52:56.042Z,4.93
2022-10-15T20:55:23.676Z,4.57
2022-10-15T20:57:51.035Z,5.05
2022-10-15T21:00:18.434Z,4.97
2022-10-15T21:02:45.783Z,4.45
2022-10-15T21:05:13.145Z,4.63
2022-10-15T21:07:40.466Z,5.00
2022-10-15T21:10:08.086Z,5.00
2022-10-15T21:12:35.428Z,5.00
2022-10-15T21:15:02.819Z,5.10
2022-10-15T21:17:30.140Z,4.95
2022-10-15T21:19:57.484Z,5.70
2022-10-15T21:22:24.822Z,5.22
2022-10-15T21:24:52.106Z,4.68
2022-10-15T21:27:19.504Z,5.28
2022-10-15T21:29:46.976Z,5.10
2022-10-15T21:32:14.310Z,5.15
2022-10-15T21:34:41.635Z,4.82
2022-10-15T21:37:09.007Z,4.80
2022-10-15T21:39:36.325Z,5.90
2022-10-15T21:42:03.754Z,5.53
2022-10-15T21:44:31.070Z,5.50
2022-10-15T21:46:58.382Z,5.50
2022-10-15T21:49:25.696Z,5.43
2022-10-15T21:51:52.985Z,5.60
2022-10-15T21:54:20.377Z,5.28
2022-10-15T21:56:47.677Z,4.80
2022-10-15T21:59:15.655Z,4.40
2022-10-15T22:01:45.198Z,4.43
2022-10-15T22:04:12.574Z,4.13
2022-10-15T22:06:40.261Z,4.00
2022-10-15T22:09:08.144Z,4.07
2022-10-15T22:11:37.278Z,3.83
2022-10-15T22:14:06.564Z,3.70
2022-10-15T22:16:35.099Z,3.67
2022-10-15T22:19:02.454Z,4.03
2022-10-15T22:21:31.136Z,3.47
2022-10-15T22:24:03.139Z,2.53
2022-10-15T22:26:31.985Z,2.95
2022-10-15T22:29:00.099Z,2.50
2022-10-15T22:31:28.035Z,2.88
2022-10-15T22:33:55.519Z,2.80
2022-10-15T22:36:24.619Z,2.75
2022-10-15T22:41:29.810Z,2.63
2022-10-15T22:43:57.262Z,3.03
2022-10-15T22:46:24.926Z,2.80
2022-10-15T22:48:53.593Z,2.90
2022-10-15T22:51:21.133Z,2.78
2022-10-15T22:53:48.590Z,2.70
2022-10-15T22:56:17.470Z,3.00
2022-10-15T22:58:44.975Z,2.75
2022-10-15T23:01:13.854Z,2.83
2022-10-15T23:03:42.181Z,3.20
2022-10-15T23:06:09.575Z,2.80
2022-10-15T23:08:37.022Z,2.80
2022-10-15T23:11:12.182Z,2.92
2022-10-15T23:13:39.736Z,3.03
2022-10-15T23:16:16.702Z,3.00
2022-10-15T23:18:44.422Z,2.60
2022-10-15T23:21:14.174Z,2.72
2022-10-15T23:23:42.252Z,2.75
2022-10-15T23:26:14.418Z,2.75
2022-10-15T23:28:42.774Z,3.30
2022-10-15T23:31:20.645Z,2.75
2022-10-15T23:33:48.099Z,3.13
2022-10-15T23:36:15.460Z,2.90
2022-10-15T23:38:43.075Z,2.72
2022-10-15T23:41:10.553Z,2.90
2022-10-15T23:43:37.970Z,6.35
2022-10-15T23:46:05.438Z,6.85
2022-10-15T23:48:32.819Z,5.00
2022-10-15T23:51:03.341Z,3.50
2022-10-15T23:53:32.812Z,3.03
2022-10-15T23:56:02.843Z,3.00
2022-10-15T23:58:32.320Z,2.92
